Terminal Aerodrome Forecast
Issued by NWS Charleston, WV

Current Version | Previous Version | Graphics & Text | Print | Product List | Glossary On
Versions: 1 2 3 4 5 6 7 8 9 10 11 12 13 14 15 16 17 18 19 20 21 22 23 24 25 26 27 28
000
FTUS41 KRLX 222300
TAFHTS
TAF
KHTS 222327Z 2300/2324 VRB03KT 3SM TSRA BR BKN030CB
     FM230200 00000KT 6SM BR BKN020
     FM231000 00000KT 3SM BR BKN020
     FM231300 00000KT 6SM BR BKN025
     FM231500 00000KT P6SM BKN035=

USA.gov is the U.S. government's official web portal to all federal, state and local government web resources and services.